createdAt,value
2019-03-27T00:00:09.423Z,24.50
2019-03-27T00:02:37.811Z,23.07
2019-03-27T00:05:06.428Z,17.70
2019-03-27T00:07:34.828Z,26.20
2019-03-27T00:10:04.459Z,21.77
2019-03-27T00:12:32.862Z,24.03
2019-03-27T00:15:12.195Z,25.25
2019-03-27T00:17:31.384Z,24.45
2019-03-27T00:19:59.772Z,22.27
2019-03-27T00:22:28.147Z,21.15
2019-03-27T00:24:56.551Z,21.37
2019-03-27T00:27:24.944Z,26.55
2019-03-27T00:29:53.332Z,24.25
2019-03-27T00:32:21.712Z,23.80
2019-03-27T00:34:50.113Z,18.82
2019-03-27T00:37:18.835Z,20.05
2019-03-27T00:39:47.491Z,26.77
2019-03-27T00:42:15.872Z,20.72
2019-03-27T00:44:44.266Z,23.18
2019-03-27T00:47:12.655Z,25.05
2019-03-27T00:49:41.044Z,17.35
2019-03-27T00:52:09.428Z,21.80
2019-03-27T00:54:37.822Z,23.62
2019-03-27T00:57:06.204Z,19.67
2019-03-27T00:59:34.602Z,22.73
2019-03-27T01:02:02.984Z,19.25
2019-03-27T01:04:31.377Z,26.77
2019-03-27T01:06:59.763Z,19.45
2019-03-27T01:09:28.163Z,20.72
2019-03-27T01:11:56.548Z,20.70
2019-03-27T01:14:24.933Z,17.32
2019-03-27T01:16:53.701Z,30.12
2019-03-27T01:19:22.127Z,19.62
2019-03-27T01:21:50.491Z,18.70
2019-03-27T01:24:18.879Z,21.52
2019-03-27T01:26:47.263Z,23.15
2019-03-27T01:29:15.649Z,22.80
2019-03-27T01:31:44.028Z,27.67
2019-03-27T01:34:12.418Z,18.77
2019-03-27T01:36:40.800Z,19.98
2019-03-27T01:39:09.212Z,23.40
2019-03-27T01:41:37.604Z,22.58
2019-03-27T01:44:05.989Z,20.32
2019-03-27T01:46:34.372Z,18.20
2019-03-27T01:49:02.777Z,22.40
2019-03-27T01:51:31.234Z,17.02
2019-03-27T01:53:59.636Z,22.22
2019-03-27T01:56:28.037Z,24.90
2019-03-27T01:58:56.425Z,17.92
2019-03-27T02:01:24.794Z,17.37
2019-03-27T02:03:53.205Z,26.30
2019-03-27T02:06:21.577Z,20.27
2019-03-27T02:08:49.977Z,27.58
2019-03-27T02:11:18.365Z,23.50
2019-03-27T02:13:46.757Z,21.40
2019-03-27T02:16:15.143Z,25.80
2019-03-27T02:18:43.532Z,22.07
2019-03-27T02:21:12.251Z,23.57
2019-03-27T02:23:40.654Z,20.72
2019-03-27T02:26:09.047Z,22.95
2019-03-27T02:28:37.435Z,19.92
2019-03-27T02:31:05.820Z,22.60
2019-03-27T02:33:34.553Z,26.33
2019-03-27T02:36:02.963Z,25.57
2019-03-27T02:38:31.429Z,27.73
2019-03-27T02:40:59.806Z,23.35
2019-03-27T02:43:28.283Z,26.45
2019-03-27T02:45:56.665Z,25.70
2019-03-27T02:48:25.076Z,25.35
2019-03-27T02:50:53.469Z,32.38
2019-03-27T02:53:21.857Z,24.35
2019-03-27T02:55:50.255Z,26.62
2019-03-27T02:58:18.652Z,23.57
2019-03-27T03:00:47.035Z,24.70
2019-03-27T03:03:15.732Z,18.77
2019-03-27T03:05:44.117Z,24.30
2019-03-27T03:08:12.526Z,20.12
2019-03-27T03:10:45.235Z,25.02
2019-03-27T03:13:11.017Z,32.88
2019-03-27T03:15:39.431Z,29.15
2019-03-27T03:18:08.057Z,23.02
2019-03-27T03:20:36.443Z,28.15
2019-03-27T03:23:04.832Z,24.90
2019-03-27T03:25:33.221Z,26.02
2019-03-27T03:28:01.605Z,30.60
2019-03-27T03:30:30.001Z,26.00
2019-03-27T03:32:58.644Z,28.47
2019-03-27T03:35:27.053Z,29.87
2019-03-27T03:37:55.438Z,19.92
2019-03-27T03:40:23.971Z,25.57
2019-03-27T03:42:52.353Z,34.05
2019-03-27T03:45:20.753Z,27.02
2019-03-27T03:47:49.435Z,25.08
2019-03-27T03:50:39.212Z,23.05
2019-03-27T03:53:09.854Z,31.57
2019-03-27T03:58:11.657Z,27.35
2019-03-27T04:00:40.275Z,29.92
2019-03-27T04:03:08.732Z,24.02
2019-03-27T04:05:37.127Z,27.02
2019-03-27T04:08:05.966Z,26.85
2019-03-27T04:10:34.364Z,24.20
2019-03-27T04:13:02.747Z,25.05
2019-03-27T04:15:31.174Z,28.65
2019-03-27T04:17:59.606Z,35.33
2019-03-27T04:20:27.996Z,24.75
2019-03-27T04:22:56.376Z,36.88
2019-03-27T04:25:24.773Z,25.88
2019-03-27T04:27:53.424Z,30.85
2019-03-27T04:30:21.825Z,26.87
2019-03-27T04:32:50.214Z,24.47
2019-03-27T04:35:18.620Z,34.98
2019-03-27T04:37:47.026Z,29.95
2019-03-27T04:40:15.416Z,35.43
2019-03-27T04:42:43.798Z,27.20
2019-03-27T04:45:12.542Z,28.83
2019-03-27T04:47:40.917Z,27.13
2019-03-27T04:50:09.389Z,25.92
2019-03-27T04:52:37.775Z,30.95
2019-03-27T04:55:06.809Z,26.68
2019-03-27T04:57:35.194Z,28.47
2019-03-27T05:00:06.193Z,32.95
2019-03-27T05:02:34.572Z,27.17
2019-03-27T05:05:04.232Z,27.10
2019-03-27T05:07:32.935Z,30.60
2019-03-27T05:10:01.349Z,26.40
2019-03-27T05:12:29.715Z,30.65
2019-03-27T05:14:58.391Z,31.35
2019-03-27T05:17:26.778Z,32.28
2019-03-27T05:19:55.170Z,35.38
2019-03-27T05:22:23.551Z,34.98
2019-03-27T05:24:51.953Z,35.35
2019-03-27T05:27:20.594Z,32.50
2019-03-27T05:29:49.290Z,38.35
2019-03-27T05:32:17.665Z,30.20
2019-03-27T05:34:46.056Z,28.85
2019-03-27T05:37:14.435Z,31.25
2019-03-27T05:39:42.829Z,32.67
2019-03-27T05:42:11.223Z,33.98
2019-03-27T05:44:39.615Z,32.73
2019-03-27T05:47:08.005Z,31.48
2019-03-27T05:49:36.405Z,36.08
2019-03-27T05:52:04.807Z,40.15
2019-03-27T05:54:33.228Z,37.30
2019-03-27T05:57:01.622Z,30.77
2019-03-27T05:59:30.026Z,35.75
2019-03-27T06:01:58.767Z,33.10
2019-03-27T06:04:27.213Z,32.13
2019-03-27T06:06:55.588Z,28.67
2019-03-27T06:09:23.998Z,28.07
2019-03-27T06:11:52.375Z,31.20
2019-03-27T06:14:20.786Z,42.03
2019-03-27T06:16:49.156Z,37.40
2019-03-27T06:19:17.551Z,34.33
2019-03-27T06:21:45.940Z,38.05
2019-03-27T06:24:14.332Z,31.75
2019-03-27T06:26:42.713Z,30.75
2019-03-27T06:29:11.103Z,31.87
2019-03-27T06:31:39.716Z,34.25
2019-03-27T06:34:08.197Z,32.40
2019-03-27T06:36:36.588Z,38.05
2019-03-27T06:39:06.064Z,33.78
2019-03-27T06:41:34.524Z,28.07
2019-03-27T06:44:02.905Z,41.02
2019-03-27T06:46:31.295Z,37.28
2019-03-27T06:48:59.675Z,32.53
2019-03-27T06:51:39.417Z,36.10
2019-03-27T06:53:58.172Z,35.52
2019-03-27T06:56:26.570Z,40.88
2019-03-27T06:58:55.290Z,31.12
2019-03-27T07:01:23.660Z,39.10
2019-03-27T07:03:52.039Z,35.08
2019-03-27T07:06:20.725Z,32.05
2019-03-27T07:08:49.408Z,26.75
2019-03-27T07:11:17.799Z,31.60
2019-03-27T07:13:46.223Z,29.82
2019-03-27T07:16:14.594Z,32.25
2019-03-27T07:18:42.987Z,28.70
2019-03-27T07:21:11.383Z,33.33
2019-03-27T07:23:39.764Z,32.73
2019-03-27T07:26:08.204Z,28.15
2019-03-27T07:28:36.579Z,43.52
2019-03-27T07:31:04.984Z,33.90
2019-03-27T07:33:33.436Z,34.00
2019-03-27T07:36:01.830Z,37.70
2019-03-27T07:38:30.489Z,40.90
2019-03-27T07:40:58.887Z,33.15
2019-03-27T07:43:27.275Z,37.17
2019-03-27T07:45:55.687Z,33.58
2019-03-27T07:48:24.063Z,34.60
2019-03-27T07:50:52.468Z,40.50
2019-03-27T07:53:22.458Z,30.62
2019-03-27T07:55:51.136Z,44.08
2019-03-27T07:58:19.554Z,37.25
2019-03-27T08:00:47.956Z,40.28
2019-03-27T08:03:16.345Z,37.10
2019-03-27T08:05:44.735Z,36.83
2019-03-27T08:08:13.136Z,28.83
2019-03-27T08:10:41.527Z,28.85
2019-03-27T08:13:09.921Z,31.87
2019-03-27T08:15:40.819Z,39.13
2019-03-27T08:18:08.500Z,27.67
2019-03-27T08:20:36.904Z,26.45
2019-03-27T08:23:05.528Z,25.72
2019-03-27T08:25:33.923Z,26.77
2019-03-27T08:28:02.317Z,29.72
2019-03-27T08:30:30.707Z,24.90
2019-03-27T08:32:59.094Z,26.68
2019-03-27T08:35:27.483Z,28.23
2019-03-27T08:37:55.882Z,23.52
2019-03-27T08:40:24.268Z,23.10
2019-03-27T08:42:52.670Z,18.85
2019-03-27T08:45:21.088Z,24.05
2019-03-27T08:47:49.549Z,14.35
2019-03-27T08:50:18.408Z,16.15
2019-03-27T08:52:46.794Z,17.65
2019-03-27T08:55:15.329Z,12.55
2019-03-27T08:57:43.712Z,14.47
2019-03-27T09:00:13.647Z,12.58
2019-03-27T09:02:42.037Z,15.48
2019-03-27T09:05:10.768Z,15.45
2019-03-27T09:07:39.158Z,12.63
2019-03-27T09:10:10.391Z,10.23
2019-03-27T09:12:38.771Z,12.33
2019-03-27T09:15:08.772Z,11.12
2019-03-27T09:17:37.160Z,11.95
2019-03-27T09:20:07.096Z,10.72
2019-03-27T09:22:35.479Z,13.03
2019-03-27T09:25:06.278Z,14.90
2019-03-27T09:27:34.656Z,9.53
2019-03-27T09:30:03.619Z,10.28
2019-03-27T09:32:31.980Z,15.25
2019-03-27T09:35:00.511Z,11.60
2019-03-27T09:37:29.110Z,15.15
2019-03-27T09:39:57.512Z,12.58
2019-03-27T09:42:26.292Z,16.67
2019-03-27T09:44:54.739Z,12.13
2019-03-27T09:47:23.145Z,17.32
2019-03-27T09:49:51.573Z,13.10
2019-03-27T09:52:19.951Z,17.50
2019-03-27T09:54:48.337Z,13.70
2019-03-27T09:57:16.739Z,15.30
2019-03-27T09:59:45.120Z,16.07
2019-03-27T10:02:13.521Z,14.70
2019-03-27T10:04:41.917Z,13.43
2019-03-27T10:07:10.605Z,12.05
2019-03-27T10:09:41.796Z,14.03
2019-03-27T10:12:10.183Z,14.83
2019-03-27T10:14:38.573Z,15.28
2019-03-27T10:17:06.967Z,15.15
2019-03-27T10:19:35.347Z,11.88
2019-03-27T10:22:03.803Z,11.45
2019-03-27T10:24:32.225Z,9.73
2019-03-27T10:27:00.628Z,10.18
2019-03-27T10:29:29.001Z,8.40
2019-03-27T10:31:57.440Z,11.53
2019-03-27T10:34:26.067Z,16.42
2019-03-27T10:36:54.457Z,14.83
2019-03-27T10:39:22.850Z,15.75
2019-03-27T10:41:51.264Z,14.50
2019-03-27T10:44:19.621Z,15.20
2019-03-27T10:46:48.041Z,13.13
2019-03-27T10:49:16.512Z,12.80
2019-03-27T10:51:45.236Z,9.75
2019-03-27T10:54:13.660Z,10.40
2019-03-27T10:56:42.033Z,9.33
2019-03-27T10:59:10.504Z,12.55
2019-03-27T11:01:38.912Z,12.03
2019-03-27T11:04:07.379Z,9.93
2019-03-27T11:06:35.892Z,14.45
2019-03-27T11:09:07.370Z,9.65
2019-03-27T11:11:35.757Z,13.55
2019-03-27T11:14:04.555Z,13.45
2019-03-27T11:16:32.948Z,11.12
2019-03-27T11:19:01.333Z,10.98
2019-03-27T11:21:29.740Z,11.33
2019-03-27T11:23:58.148Z,14.65
2019-03-27T11:26:26.562Z,11.90
2019-03-27T11:28:55.013Z,10.23
2019-03-27T11:31:23.433Z,11.68
2019-03-27T11:33:51.816Z,10.80
2019-03-27T11:36:20.237Z,14.15
2019-03-27T11:38:48.615Z,14.68
2019-03-27T11:41:17.016Z,10.85
2019-03-27T11:43:54.652Z,12.50
2019-03-27T11:46:15.849Z,12.00
2019-03-27T11:48:44.232Z,10.95
2019-03-27T11:51:12.915Z,12.98
2019-03-27T11:53:41.303Z,9.03
2019-03-27T11:56:09.692Z,10.75
2019-03-27T11:58:38.367Z,11.70
2019-03-27T12:01:06.765Z,11.43
2019-03-27T12:03:35.153Z,11.25
2019-03-27T12:06:03.552Z,9.35
2019-03-27T12:08:32.199Z,14.43
2019-03-27T12:11:00.585Z,9.80
2019-03-27T12:13:28.981Z,11.88
2019-03-27T12:15:57.743Z,12.05
2019-03-27T12:18:26.192Z,12.78
2019-03-27T12:20:59.436Z,11.20
2019-03-27T12:23:24.692Z,9.48
2019-03-27T12:25:55.249Z,10.58
2019-03-27T12:28:23.199Z,8.23
2019-03-27T12:30:51.589Z,10.23
2019-03-27T12:33:19.990Z,16.20
2019-03-27T12:35:48.455Z,12.78
2019-03-27T12:38:16.842Z,11.53
2019-03-27T12:40:45.233Z,10.53
2019-03-27T12:43:13.619Z,11.78
2019-03-27T12:45:42.001Z,11.83
2019-03-27T12:48:10.792Z,9.05
2019-03-27T12:50:39.235Z,9.25
2019-03-27T12:53:07.645Z,9.73
2019-03-27T12:55:36.099Z,10.58
2019-03-27T12:58:04.737Z,12.10
2019-03-27T13:00:33.254Z,8.55
2019-03-27T13:03:01.663Z,12.93
2019-03-27T13:05:30.041Z,16.87
2019-03-27T13:07:58.436Z,10.30
2019-03-27T13:10:26.816Z,13.25
2019-03-27T13:12:55.212Z,18.82
2019-03-27T13:15:23.583Z,12.25
2019-03-27T13:17:51.979Z,11.35
2019-03-27T13:20:20.827Z,6.85
2019-03-27T13:22:49.219Z,10.63
2019-03-27T13:25:17.668Z,12.13
2019-03-27T13:27:47.482Z,10.65
2019-03-27T13:30:16.691Z,11.78
2019-03-27T13:32:45.140Z,10.00
2019-03-27T13:35:13.587Z,11.22
2019-03-27T13:37:41.975Z,8.35
2019-03-27T13:40:10.901Z,7.58
2019-03-27T13:42:39.295Z,10.20
2019-03-27T13:45:08.732Z,12.60
2019-03-27T13:47:37.182Z,10.82
2019-03-27T13:50:08.869Z,7.90
2019-03-27T13:52:37.260Z,7.05
2019-03-27T13:55:07.186Z,13.90
2019-03-27T13:57:36.219Z,10.70
2019-03-27T14:00:08.746Z,10.98
2019-03-27T14:02:37.448Z,9.48
2019-03-27T14:05:06.864Z,6.37
2019-03-27T14:07:35.328Z,13.03
2019-03-27T14:10:05.558Z,11.18
2019-03-27T14:12:33.954Z,13.53
2019-03-27T14:15:02.346Z,15.23
2019-03-27T14:17:30.738Z,11.97
2019-03-27T14:19:59.133Z,11.70
2019-03-27T14:22:27.520Z,8.38
2019-03-27T14:24:55.904Z,11.93
2019-03-27T14:27:24.299Z,10.20
2019-03-27T14:29:52.689Z,7.87
2019-03-27T14:32:21.085Z,11.00
2019-03-27T14:34:49.471Z,10.38
2019-03-27T14:37:17.865Z,12.37
2019-03-27T14:39:46.240Z,8.58
2019-03-27T14:42:14.639Z,10.23
2019-03-27T14:44:43.029Z,7.67
2019-03-27T14:47:11.418Z,8.43
2019-03-27T14:49:39.796Z,10.05
2019-03-27T14:52:08.763Z,9.15
2019-03-27T14:54:37.335Z,8.83
2019-03-27T14:57:05.724Z,7.58
2019-03-27T14:59:34.104Z,10.20
2019-03-27T15:02:02.513Z,7.47
2019-03-27T15:04:30.891Z,7.35
2019-03-27T15:06:59.296Z,8.30
2019-03-27T15:09:27.697Z,9.75
2019-03-27T15:11:56.503Z,11.85
2019-03-27T15:14:24.884Z,11.80
2019-03-27T15:16:53.281Z,9.65
2019-03-27T15:19:21.949Z,12.53
2019-03-27T15:21:50.329Z,7.15
2019-03-27T15:24:20.571Z,6.37
2019-03-27T15:26:48.899Z,8.80
2019-03-27T15:29:17.288Z,7.08
2019-03-27T15:31:45.668Z,7.50
2019-03-27T15:34:14.053Z,5.97
2019-03-27T15:36:42.435Z,7.65
2019-03-27T15:39:10.829Z,9.98
2019-03-27T15:41:39.216Z,11.30
2019-03-27T15:44:07.613Z,8.33
2019-03-27T15:46:36.078Z,8.63
2019-03-27T15:49:04.463Z,8.85
2019-03-27T15:51:32.849Z,7.83
2019-03-27T15:54:01.240Z,7.47
2019-03-27T15:56:29.626Z,7.55
2019-03-27T15:58:58.015Z,9.38
2019-03-27T16:01:26.397Z,8.13
2019-03-27T16:03:54.785Z,7.17
2019-03-27T16:06:23.165Z,8.35
2019-03-27T16:08:51.556Z,7.90
2019-03-27T16:11:19.937Z,13.45
2019-03-27T16:13:48.343Z,12.82
2019-03-27T16:16:16.731Z,11.55
2019-03-27T16:18:45.121Z,8.28
2019-03-27T16:21:13.502Z,8.95
2019-03-27T16:23:41.895Z,9.00
2019-03-27T16:26:10.271Z,9.70
2019-03-27T16:28:38.661Z,6.62
2019-03-27T16:31:07.114Z,8.03
2019-03-27T16:33:35.509Z,6.87
2019-03-27T16:36:03.900Z,11.30
2019-03-27T16:38:32.293Z,12.45
2019-03-27T16:41:00.951Z,5.17
2019-03-27T16:43:29.345Z,7.80
2019-03-27T16:45:57.729Z,10.60
2019-03-27T16:48:26.126Z,5.42
2019-03-27T16:50:54.509Z,8.88
2019-03-27T16:53:22.896Z,6.35
2019-03-27T16:55:51.283Z,9.35
2019-03-27T16:58:19.677Z,9.58
2019-03-27T17:00:48.065Z,8.85
2019-03-27T17:03:16.453Z,7.80
2019-03-27T17:05:54.014Z,11.55
2019-03-27T17:08:15.019Z,7.87
2019-03-27T17:10:43.391Z,7.83
2019-03-27T17:13:11.782Z,7.17
2019-03-27T17:15:40.169Z,8.65
2019-03-27T17:18:08.561Z,8.83
2019-03-27T17:20:36.940Z,9.48
2019-03-27T17:23:17.427Z,8.53
2019-03-27T17:25:35.494Z,9.58
2019-03-27T17:28:03.986Z,11.45
2019-03-27T17:30:32.365Z,13.95
2019-03-27T17:33:00.758Z,12.75
2019-03-27T17:35:29.143Z,9.15
2019-03-27T17:37:57.527Z,10.65
2019-03-27T17:40:26.139Z,10.55
2019-03-27T17:42:54.527Z,9.05
2019-03-27T17:45:22.927Z,8.83
2019-03-27T17:47:51.312Z,9.10
2019-03-27T17:50:19.701Z,13.08
2019-03-27T17:52:48.096Z,15.20
2019-03-27T17:55:16.480Z,15.25
2019-03-27T17:57:44.881Z,13.32
2019-03-27T18:00:16.141Z,12.88
2019-03-27T18:02:44.593Z,13.25
2019-03-27T18:05:13.161Z,10.88
2019-03-27T18:07:41.558Z,11.50
2019-03-27T18:10:10.087Z,15.18
2019-03-27T18:12:38.477Z,14.63
2019-03-27T18:15:08.718Z,12.50
2019-03-27T18:17:37.099Z,11.40
2019-03-27T18:20:05.826Z,12.00
2019-03-27T18:22:34.223Z,11.93
2019-03-27T18:25:02.608Z,12.45
2019-03-27T18:27:30.990Z,16.77
2019-03-27T18:29:59.384Z,12.05
2019-03-27T18:32:27.775Z,14.98
2019-03-27T18:34:56.481Z,14.18
2019-03-27T18:37:24.881Z,11.73
2019-03-27T18:39:56.315Z,13.95
2019-03-27T18:42:25.003Z,15.32
2019-03-27T18:44:54.215Z,12.23
2019-03-27T18:47:22.603Z,13.95
2019-03-27T18:49:50.992Z,12.45
2019-03-27T18:52:19.376Z,17.15
2019-03-27T18:54:47.775Z,16.32
2019-03-27T18:57:16.417Z,16.55
2019-03-27T18:59:44.800Z,19.42
2019-03-27T19:02:13.190Z,15.55
2019-03-27T19:04:41.580Z,10.72
2019-03-27T19:07:09.961Z,12.03
2019-03-27T19:09:38.366Z,11.97
2019-03-27T19:12:06.744Z,11.65
2019-03-27T19:14:35.145Z,10.03
2019-03-27T19:17:03.533Z,18.15
2019-03-27T19:19:33.290Z,14.38
2019-03-27T19:22:01.683Z,17.50
2019-03-27T19:24:30.080Z,14.78
2019-03-27T19:26:58.451Z,16.97
2019-03-27T19:29:26.924Z,12.80
2019-03-27T19:31:55.312Z,10.23
2019-03-27T19:34:23.717Z,14.25
2019-03-27T19:36:52.441Z,15.75
2019-03-27T19:39:20.828Z,17.42
2019-03-27T19:41:49.208Z,12.78
2019-03-27T19:44:17.687Z,16.10
2019-03-27T19:46:46.165Z,13.45
2019-03-27T19:49:14.854Z,21.77
2019-03-27T19:51:43.236Z,16.02
2019-03-27T19:54:11.639Z,19.70
2019-03-27T19:56:40.028Z,15.83
2019-03-27T19:59:08.432Z,19.57
2019-03-27T20:01:37.060Z,15.72
2019-03-27T20:04:05.451Z,16.42
2019-03-27T20:06:33.844Z,16.87
2019-03-27T20:09:02.244Z,17.87
2019-03-27T20:11:30.645Z,17.27
2019-03-27T20:13:59.013Z,16.40
2019-03-27T20:16:27.401Z,17.73
2019-03-27T20:18:55.793Z,16.20
2019-03-27T20:21:24.179Z,20.80
2019-03-27T20:23:52.567Z,18.35
2019-03-27T20:26:20.949Z,16.05
2019-03-27T20:28:49.337Z,16.27
2019-03-27T20:31:17.720Z,18.57
2019-03-27T20:33:46.111Z,17.48
2019-03-27T20:36:14.488Z,15.53
2019-03-27T20:38:42.897Z,15.10
2019-03-27T20:41:11.257Z,14.73
2019-03-27T20:43:39.655Z,19.65
2019-03-27T20:46:08.035Z,21.62
2019-03-27T20:48:36.496Z,21.20
2019-03-27T20:51:05.024Z,23.02
2019-03-27T20:53:33.456Z,15.68
2019-03-27T20:56:01.844Z,24.95
2019-03-27T20:58:30.233Z,17.67
2019-03-27T21:00:58.621Z,12.05
2019-03-27T21:03:27.000Z,18.95
2019-03-27T21:05:55.400Z,18.35
2019-03-27T21:08:23.787Z,12.35
2019-03-27T21:10:52.167Z,13.90
2019-03-27T21:13:20.804Z,18.20
2019-03-27T21:15:49.197Z,21.02
2019-03-27T21:18:17.588Z,20.32
2019-03-27T21:20:45.980Z,25.02
2019-03-27T21:23:14.365Z,18.25
2019-03-27T21:25:42.756Z,16.37
2019-03-27T21:28:11.140Z,16.17
2019-03-27T21:30:39.535Z,19.60
2019-03-27T21:33:07.913Z,20.72
2019-03-27T21:35:36.311Z,16.52
2019-03-27T21:38:04.760Z,14.05
2019-03-27T21:40:33.162Z,18.98
2019-03-27T21:43:01.603Z,22.52
2019-03-27T21:45:32.274Z,20.45
2019-03-27T21:48:00.091Z,18.77
2019-03-27T21:50:28.765Z,15.93
2019-03-27T21:53:00.820Z,21.25
2019-03-27T21:55:27.265Z,20.25
2019-03-27T21:57:55.954Z,16.60
2019-03-27T22:00:40.095Z,17.20
2019-03-27T22:03:09.014Z,19.95
2019-03-27T22:05:37.414Z,19.75
2019-03-27T22:08:05.779Z,18.60
2019-03-27T22:10:34.171Z,24.30
2019-03-27T22:13:02.547Z,20.82
2019-03-27T22:15:31.208Z,17.98
2019-03-27T22:17:59.575Z,12.68
2019-03-27T22:20:27.976Z,24.00
2019-03-27T22:22:56.363Z,20.50
2019-03-27T22:25:35.295Z,23.77
2019-03-27T22:27:54.855Z,21.20
2019-03-27T22:30:23.244Z,25.85
2019-03-27T22:32:51.629Z,22.02
2019-03-27T22:35:20.020Z,24.05
2019-03-27T22:37:48.394Z,24.92
2019-03-27T22:40:16.793Z,21.23
2019-03-27T22:42:45.177Z,25.60
2019-03-27T22:45:13.799Z,21.80
2019-03-27T22:47:42.179Z,28.70
2019-03-27T22:50:10.648Z,26.40
2019-03-27T22:52:39.027Z,20.95
2019-03-27T22:55:08.953Z,23.55
2019-03-27T22:57:37.332Z,31.00
2019-03-27T23:00:08.807Z,21.45
2019-03-27T23:02:37.269Z,25.60
2019-03-27T23:05:06.880Z,19.70
2019-03-27T23:07:35.257Z,24.70
2019-03-27T23:10:07.420Z,26.42
2019-03-27T23:12:35.811Z,24.12
2019-03-27T23:15:09.077Z,26.48
2019-03-27T23:17:37.448Z,31.17
2019-03-27T23:20:08.554Z,31.90
2019-03-27T23:22:36.937Z,27.95
2019-03-27T23:25:05.976Z,31.93
2019-03-27T23:27:34.364Z,33.63
2019-03-27T23:30:03.220Z,33.88
2019-03-27T23:32:31.609Z,33.13
2019-03-27T23:35:00.001Z,39.18
2019-03-27T23:37:28.372Z,31.35
2019-03-27T23:39:56.920Z,32.38
2019-03-27T23:42:25.312Z,34.33
2019-03-27T23:44:53.704Z,33.60
2019-03-27T23:47:22.092Z,35.98
2019-03-27T23:49:50.479Z,31.75
2019-03-27T23:52:18.864Z,31.95
2019-03-27T23:54:47.252Z,29.77
2019-03-27T23:57:15.654Z,32.48
2019-03-27T23:59:44.373Z,39.88
